sensor_id;sensor_type;location;lat;lon;timestamp;P1;durP1;ratioP1;P2;durP2;ratioP2
17636;SDS011;8937;51.236;6.794;2023-05-02T00:07:57;8.93;;;7.53;;
17636;SDS011;8937;51.236;6.794;2023-05-02T00:16:19;16.40;;;8.57;;
17636;SDS011;8937;51.236;6.794;2023-05-02T00:24:41;11.33;;;8.53;;
17636;SDS011;8937;51.236;6.794;2023-05-02T00:33:03;11.97;;;8.90;;
17636;SDS011;8937;51.236;6.794;2023-05-02T00:41:27;14.13;;;9.70;;
17636;SDS011;8937;51.236;6.794;2023-05-02T00:49:48;19.27;;;13.20;;
17636;SDS011;8937;51.236;6.794;2023-05-02T00:58:12;22.83;;;15.13;;
17636;SDS011;8937;51.236;6.794;2023-05-02T01:06:38;22.27;;;14.43;;
17636;SDS011;8937;51.236;6.794;2023-05-02T01:15:03;26.63;;;15.77;;
17636;SDS011;8937;51.236;6.794;2023-05-02T01:23:27;21.03;;;13.47;;
17636;SDS011;8937;51.236;6.794;2023-05-02T01:31:52;19.50;;;12.10;;
17636;SDS011;8937;51.236;6.794;2023-05-02T01:40:14;18.07;;;11.73;;
17636;SDS011;8937;51.236;6.794;2023-05-02T01:48:38;22.93;;;14.67;;
17636;SDS011;8937;51.236;6.794;2023-05-02T01:57:01;23.27;;;12.90;;
17636;SDS011;8937;51.236;6.794;2023-05-02T02:05:26;20.33;;;12.73;;
17636;SDS011;8937;51.236;6.794;2023-05-02T02:13:48;19.37;;;12.20;;
17636;SDS011;8937;51.236;6.794;2023-05-02T02:22:14;21.10;;;12.80;;
17636;SDS011;8937;51.236;6.794;2023-05-02T02:30:37;20.20;;;11.67;;
17636;SDS011;8937;51.236;6.794;2023-05-02T02:39:03;19.83;;;11.20;;
17636;SDS011;8937;51.236;6.794;2023-05-02T02:47:26;18.47;;;11.10;;
17636;SDS011;8937;51.236;6.794;2023-05-02T02:55:52;19.30;;;11.57;;
17636;SDS011;8937;51.236;6.794;2023-05-02T03:04:16;17.70;;;10.07;;
17636;SDS011;8937;51.236;6.794;2023-05-02T03:12:40;17.43;;;10.03;;
17636;SDS011;8937;51.236;6.794;2023-05-02T03:21:02;19.90;;;11.27;;
17636;SDS011;8937;51.236;6.794;2023-05-02T03:29:25;20.60;;;12.70;;
17636;SDS011;8937;51.236;6.794;2023-05-02T03:37:47;20.37;;;11.83;;
17636;SDS011;8937;51.236;6.794;2023-05-02T03:46:11;13.23;;;8.80;;
17636;SDS011;8937;51.236;6.794;2023-05-02T03:54:32;17.17;;;10.10;;
17636;SDS011;8937;51.236;6.794;2023-05-02T04:02:55;13.07;;;8.47;;
17636;SDS011;8937;51.236;6.794;2023-05-02T04:11:16;10.83;;;6.70;;
17636;SDS011;8937;51.236;6.794;2023-05-02T04:19:39;10.63;;;6.93;;
17636;SDS011;8937;51.236;6.794;2023-05-02T04:28:01;12.23;;;7.57;;
17636;SDS011;8937;51.236;6.794;2023-05-02T04:36:24;13.33;;;8.23;;
17636;SDS011;8937;51.236;6.794;2023-05-02T04:44:47;13.93;;;8.43;;
17636;SDS011;8937;51.236;6.794;2023-05-02T04:53:10;12.47;;;7.77;;
17636;SDS011;8937;51.236;6.794;2023-05-02T05:01:31;14.07;;;8.47;;
17636;SDS011;8937;51.236;6.794;2023-05-02T05:09:54;16.40;;;9.70;;
17636;SDS011;8937;51.236;6.794;2023-05-02T05:18:15;12.03;;;7.87;;
17636;SDS011;8937;51.236;6.794;2023-05-02T05:26:38;10.87;;;7.00;;
17636;SDS011;8937;51.236;6.794;2023-05-02T05:34:59;11.90;;;7.20;;
17636;SDS011;8937;51.236;6.794;2023-05-02T05:43:22;15.23;;;9.77;;
17636;SDS011;8937;51.236;6.794;2023-05-02T05:51:45;15.50;;;10.00;;
17636;SDS011;8937;51.236;6.794;2023-05-02T06:00:08;10.20;;;6.63;;
17636;SDS011;8937;51.236;6.794;2023-05-02T06:08:30;11.47;;;6.30;;
17636;SDS011;8937;51.236;6.794;2023-05-02T06:16:53;6.53;;;5.67;;
17636;SDS011;8937;51.236;6.794;2023-05-02T06:25:15;8.03;;;4.40;;
17636;SDS011;8937;51.236;6.794;2023-05-02T06:33:37;6.50;;;4.90;;
17636;SDS011;8937;51.236;6.794;2023-05-02T06:41:59;4.87;;;3.77;;
17636;SDS011;8937;51.236;6.794;2023-05-02T06:50:22;6.63;;;4.03;;
17636;SDS011;8937;51.236;6.794;2023-05-02T06:58:43;5.90;;;3.57;;
17636;SDS011;8937;51.236;6.794;2023-05-02T07:07:06;5.73;;;3.83;;
17636;SDS011;8937;51.236;6.794;2023-05-02T07:15:27;6.30;;;3.60;;
17636;SDS011;8937;51.236;6.794;2023-05-02T07:23:50;5.20;;;3.53;;
17636;SDS011;8937;51.236;6.794;2023-05-02T07:32:11;9.83;;;4.73;;
17636;SDS011;8937;51.236;6.794;2023-05-02T07:40:34;6.30;;;4.23;;
17636;SDS011;8937;51.236;6.794;2023-05-02T07:48:55;4.00;;;2.60;;
17636;SDS011;8937;51.236;6.794;2023-05-02T07:57:18;2.40;;;1.90;;
17636;SDS011;8937;51.236;6.794;2023-05-02T08:05:39;4.70;;;2.10;;
17636;SDS011;8937;51.236;6.794;2023-05-02T08:14:02;5.50;;;2.57;;
17636;SDS011;8937;51.236;6.794;2023-05-02T08:22:23;4.43;;;2.30;;
17636;SDS011;8937;51.236;6.794;2023-05-02T08:30:46;3.87;;;2.27;;
17636;SDS011;8937;51.236;6.794;2023-05-02T08:39:08;3.90;;;3.30;;
17636;SDS011;8937;51.236;6.794;2023-05-02T08:47:31;6.87;;;3.13;;
17636;SDS011;8937;51.236;6.794;2023-05-02T08:55:52;6.20;;;3.10;;
17636;SDS011;8937;51.236;6.794;2023-05-02T09:04:15;5.07;;;2.77;;
17636;SDS011;8937;51.236;6.794;2023-05-02T09:12:38;6.80;;;2.40;;
17636;SDS011;8937;51.236;6.794;2023-05-02T09:21:03;5.17;;;3.20;;
17636;SDS011;8937;51.236;6.794;2023-05-02T09:29:26;8.03;;;3.87;;
17636;SDS011;8937;51.236;6.794;2023-05-02T09:37:50;5.20;;;3.13;;
17636;SDS011;8937;51.236;6.794;2023-05-02T09:46:12;3.97;;;2.63;;
17636;SDS011;8937;51.236;6.794;2023-05-02T09:54:35;9.80;;;3.20;;
17636;SDS011;8937;51.236;6.794;2023-05-02T10:02:57;4.90;;;2.47;;
17636;SDS011;8937;51.236;6.794;2023-05-02T10:11:20;6.37;;;3.97;;
17636;SDS011;8937;51.236;6.794;2023-05-02T10:19:47;3.33;;;3.03;;
17636;SDS011;8937;51.236;6.794;2023-05-02T10:28:12;3.90;;;3.17;;
17636;SDS011;8937;51.236;6.794;2023-05-02T10:36:35;4.33;;;2.80;;
17636;SDS011;8937;51.236;6.794;2023-05-02T10:44:59;5.80;;;2.37;;
17636;SDS011;8937;51.236;6.794;2023-05-02T10:53:24;5.10;;;2.90;;
17636;SDS011;8937;51.236;6.794;2023-05-02T11:01:47;4.07;;;3.07;;
17636;SDS011;8937;51.236;6.794;2023-05-02T11:10:23;4.97;;;3.27;;
17636;SDS011;8937;51.236;6.794;2023-05-02T11:18:58;5.53;;;2.97;;
17636;SDS011;8937;51.236;6.794;2023-05-02T11:27:35;4.87;;;2.70;;
17636;SDS011;8937;51.236;6.794;2023-05-02T11:35:59;5.53;;;3.33;;
17636;SDS011;8937;51.236;6.794;2023-05-02T11:44:20;5.90;;;3.00;;
17636;SDS011;8937;51.236;6.794;2023-05-02T11:52:43;7.70;;;4.10;;
17636;SDS011;8937;51.236;6.794;2023-05-02T12:01:11;7.70;;;3.70;;
17636;SDS011;8937;51.236;6.794;2023-05-02T12:09:34;3.10;;;2.53;;
17636;SDS011;8937;51.236;6.794;2023-05-02T12:17:56;10.33;;;5.00;;
17636;SDS011;8937;51.236;6.794;2023-05-02T12:26:20;4.17;;;2.60;;
17636;SDS011;8937;51.236;6.794;2023-05-02T12:34:44;5.13;;;2.90;;
17636;SDS011;8937;51.236;6.794;2023-05-02T12:43:07;3.83;;;2.57;;
17636;SDS011;8937;51.236;6.794;2023-05-02T12:51:29;5.77;;;3.43;;
17636;SDS011;8937;51.236;6.794;2023-05-02T12:59:53;4.63;;;2.97;;
17636;SDS011;8937;51.236;6.794;2023-05-02T13:08:14;3.73;;;3.13;;
17636;SDS011;8937;51.236;6.794;2023-05-02T13:16:37;4.67;;;2.97;;
17636;SDS011;8937;51.236;6.794;2023-05-02T13:24:59;7.97;;;3.67;;
17636;SDS011;8937;51.236;6.794;2023-05-02T13:33:21;2.97;;;2.20;;
17636;SDS011;8937;51.236;6.794;2023-05-02T13:41:43;7.83;;;5.30;;
17636;SDS011;8937;51.236;6.794;2023-05-02T13:50:06;2.50;;;2.30;;
17636;SDS011;8937;51.236;6.794;2023-05-02T13:58:28;3.37;;;2.60;;
17636;SDS011;8937;51.236;6.794;2023-05-02T14:06:51;2.70;;;2.50;;
17636;SDS011;8937;51.236;6.794;2023-05-02T14:15:12;4.80;;;2.60;;
17636;SDS011;8937;51.236;6.794;2023-05-02T14:23:35;4.37;;;2.40;;
17636;SDS011;8937;51.236;6.794;2023-05-02T14:31:56;5.37;;;2.83;;
17636;SDS011;8937;51.236;6.794;2023-05-02T14:40:19;6.10;;;3.60;;
17636;SDS011;8937;51.236;6.794;2023-05-02T14:48:40;2.70;;;2.47;;
17636;SDS011;8937;51.236;6.794;2023-05-02T14:57:03;4.30;;;2.40;;
17636;SDS011;8937;51.236;6.794;2023-05-02T15:05:25;2.58;;;2.25;;
17636;SDS011;8937;51.236;6.794;2023-05-02T15:13:47;3.33;;;2.43;;
17636;SDS011;8937;51.236;6.794;2023-05-02T15:22:09;4.57;;;2.53;;
17636;SDS011;8937;51.236;6.794;2023-05-02T15:30:31;2.70;;;2.10;;
17636;SDS011;8937;51.236;6.794;2023-05-02T15:38:53;5.77;;;3.53;;
17636;SDS011;8937;51.236;6.794;2023-05-02T15:47:15;4.33;;;2.53;;
17636;SDS011;8937;51.236;6.794;2023-05-02T15:55:37;5.17;;;3.07;;
17636;SDS011;8937;51.236;6.794;2023-05-02T16:04:00;5.27;;;2.73;;
17636;SDS011;8937;51.236;6.794;2023-05-02T16:12:21;4.03;;;2.63;;
17636;SDS011;8937;51.236;6.794;2023-05-02T16:20:44;10.07;;;6.93;;
17636;SDS011;8937;51.236;6.794;2023-05-02T16:29:06;5.20;;;3.28;;
17636;SDS011;8937;51.236;6.794;2023-05-02T16:37:29;7.97;;;2.83;;
17636;SDS011;8937;51.236;6.794;2023-05-02T16:45:57;6.00;;;2.30;;
17636;SDS011;8937;51.236;6.794;2023-05-02T16:54:20;4.90;;;2.20;;
17636;SDS011;8937;51.236;6.794;2023-05-02T17:02:41;4.20;;;2.83;;
17636;SDS011;8937;51.236;6.794;2023-05-02T17:11:04;7.17;;;2.80;;
17636;SDS011;8937;51.236;6.794;2023-05-02T17:19:26;4.87;;;2.80;;
17636;SDS011;8937;51.236;6.794;2023-05-02T17:27:49;5.67;;;3.07;;
17636;SDS011;8937;51.236;6.794;2023-05-02T17:36:11;4.83;;;3.60;;
17636;SDS011;8937;51.236;6.794;2023-05-02T17:44:34;6.03;;;3.20;;
17636;SDS011;8937;51.236;6.794;2023-05-02T17:52:56;5.43;;;2.60;;
17636;SDS011;8937;51.236;6.794;2023-05-02T18:01:19;4.60;;;2.83;;
17636;SDS011;8937;51.236;6.794;2023-05-02T18:09:40;7.43;;;2.97;;
17636;SDS011;8937;51.236;6.794;2023-05-02T18:18:03;4.00;;;2.93;;
17636;SDS011;8937;51.236;6.794;2023-05-02T18:26:24;3.33;;;2.60;;
17636;SDS011;8937;51.236;6.794;2023-05-02T18:34:47;2.77;;;1.90;;
17636;SDS011;8937;51.236;6.794;2023-05-02T18:43:09;2.43;;;2.23;;
17636;SDS011;8937;51.236;6.794;2023-05-02T18:51:32;2.10;;;1.90;;
17636;SDS011;8937;51.236;6.794;2023-05-02T18:59:54;2.93;;;2.20;;
17636;SDS011;8937;51.236;6.794;2023-05-02T19:08:17;2.13;;;1.93;;
17636;SDS011;8937;51.236;6.794;2023-05-02T19:16:38;2.43;;;1.90;;
17636;SDS011;8937;51.236;6.794;2023-05-02T19:25:01;2.40;;;2.07;;
17636;SDS011;8937;51.236;6.794;2023-05-02T19:33:22;2.77;;;2.10;;
17636;SDS011;8937;51.236;6.794;2023-05-02T19:41:45;2.23;;;2.03;;
17636;SDS011;8937;51.236;6.794;2023-05-02T19:50:09;3.03;;;2.17;;
17636;SDS011;8937;51.236;6.794;2023-05-02T19:58:31;1.80;;;1.70;;
17636;SDS011;8937;51.236;6.794;2023-05-02T20:06:53;6.80;;;2.03;;
17636;SDS011;8937;51.236;6.794;2023-05-02T20:15:15;2.20;;;1.80;;
17636;SDS011;8937;51.236;6.794;2023-05-02T20:23:37;2.43;;;2.23;;
17636;SDS011;8937;51.236;6.794;2023-05-02T20:32:00;1.90;;;1.80;;
17636;SDS011;8937;51.236;6.794;2023-05-02T20:40:21;2.00;;;1.83;;
17636;SDS011;8937;51.236;6.794;2023-05-02T20:48:46;2.80;;;1.87;;
17636;SDS011;8937;51.236;6.794;2023-05-02T20:57:08;2.50;;;1.90;;
17636;SDS011;8937;51.236;6.794;2023-05-02T21:05:30;7.03;;;2.40;;
17636;SDS011;8937;51.236;6.794;2023-05-02T21:13:52;2.10;;;1.83;;
17636;SDS011;8937;51.236;6.794;2023-05-02T21:22:14;4.10;;;1.70;;
17636;SDS011;8937;51.236;6.794;2023-05-02T21:30:36;2.03;;;1.93;;
17636;SDS011;8937;51.236;6.794;2023-05-02T21:38:59;2.10;;;1.90;;
17636;SDS011;8937;51.236;6.794;2023-05-02T21:47:20;1.50;;;1.40;;
17636;SDS011;8937;51.236;6.794;2023-05-02T21:55:44;5.13;;;1.77;;
17636;SDS011;8937;51.236;6.794;2023-05-02T22:04:05;2.80;;;1.83;;
17636;SDS011;8937;51.236;6.794;2023-05-02T22:12:28;1.87;;;1.60;;
17636;SDS011;8937;51.236;6.794;2023-05-02T22:20:49;2.23;;;1.67;;
17636;SDS011;8937;51.236;6.794;2023-05-02T22:29:12;2.60;;;1.80;;
17636;SDS011;8937;51.236;6.794;2023-05-02T22:37:33;1.70;;;1.60;;
17636;SDS011;8937;51.236;6.794;2023-05-02T22:45:56;2.00;;;1.90;;
17636;SDS011;8937;51.236;6.794;2023-05-02T22:54:18;2.40;;;1.63;;
17636;SDS011;8937;51.236;6.794;2023-05-02T23:02:41;2.53;;;1.83;;
17636;SDS011;8937;51.236;6.794;2023-05-02T23:11:03;1.60;;;1.50;;
17636;SDS011;8937;51.236;6.794;2023-05-02T23:19:26;1.93;;;1.83;;
17636;SDS011;8937;51.236;6.794;2023-05-02T23:27:47;5.60;;;2.23;;
17636;SDS011;8937;51.236;6.794;2023-05-02T23:36:10;2.30;;;2.10;;
17636;SDS011;8937;51.236;6.794;2023-05-02T23:44:31;1.80;;;1.70;;
17636;SDS011;8937;51.236;6.794;2023-05-02T23:52:54;3.73;;;1.93;;
